Time;durP1;ratioP1;P1;durP2;ratioP2;P2;SDS_P1;SDS_P2;PMS_P1;PMS_P2;Temp;Humidity;BMP_temperature;BMP_pressure;BME280_temperature;BME280_humidity;BME280_pressure;Samples;Min_cycle;Max_cycle;Signal;HPM_P1;HPM_P2
2022/10/21 00:02:06;;;;;;;5.15;4.30;;;20.00;67.80;;;;;;5086057;28;45329;-68
2022/10/21 00:04:33;;;;;;;4.97;4.43;;;20.00;67.80;;;;;;5086418;28;45266;-68
2022/10/21 00:07:00;;;;;;;5.05;4.30;;;20.00;68.00;;;;;;5086402;28;45212;-68
2022/10/21 00:09:26;;;;;;;5.55;4.20;;;20.00;67.90;;;;;;5085945;28;47293;-68
2022/10/21 00:11:53;;;;;;;6.93;4.03;;;20.00;67.90;;;;;;5086124;28;45250;-68
2022/10/21 00:14:20;;;;;;;6.60;4.30;;;20.00;67.90;;;;;;5086202;28;45352;-68
2022/10/21 00:16:47;;;;;;;4.70;4.20;;;20.00;68.10;;;;;;5086427;28;45412;-68
2022/10/21 00:19:15;;;;;;;4.35;3.70;;;20.00;68.00;;;;;;5085909;28;46414;-68
2022/10/21 00:21:42;;;;;;;7.15;4.00;;;20.00;68.00;;;;;;5085871;28;45253;-67
2022/10/21 00:24:09;;;;;;;4.75;4.13;;;20.00;68.00;;;;;;5085906;28;45257;-67
2022/10/21 00:26:35;;;;;;;4.90;3.95;;;20.00;68.00;;;;;;5086089;28;45392;-68
2022/10/21 00:29:02;;;;;;;5.78;4.03;;;19.90;67.90;;;;;;5085541;28;45288;-67
2022/10/21 00:31:29;;;;;;;5.43;4.25;;;19.90;67.80;;;;;;5085718;28;45308;-67
2022/10/21 00:33:56;;;;;;;4.20;3.80;;;19.90;67.90;;;;;;5085811;28;45232;-67
2022/10/21 00:36:24;;;;;;;4.55;4.10;;;19.90;68.70;;;;;;5085843;28;45367;-68
2022/10/21 00:38:51;;;;;;;4.55;4.15;;;19.90;67.90;;;;;;5085340;28;46686;-67
2022/10/21 00:41:19;;;;;;;4.90;3.88;;;19.90;67.90;;;;;;5085511;28;45289;-67
2022/10/21 00:43:56;;;;;;;4.22;3.75;;;19.90;68.00;;;;;;5085229;28;45169;-68
2022/10/21 00:46:25;;;;;;;5.38;4.20;;;19.90;68.00;;;;;;5085821;28;45174;-67
2022/10/21 00:48:54;;;;;;;4.30;3.90;;;19.90;67.90;;;;;;5085442;28;45385;-67
2022/10/21 00:51:21;;;;;;;4.20;3.78;;;19.90;67.90;;;;;;5085442;28;45232;-67
2022/10/21 00:53:49;;;;;;;6.70;4.03;;;19.90;67.90;;;;;;5085551;28;45205;-68
2022/10/21 00:56:19;;;;;;;5.28;3.83;;;19.90;67.90;;;;;;5085579;28;45408;-68
2022/10/21 00:58:46;;;;;;;5.25;4.00;;;19.90;67.90;;;;;;5085242;28;45228;-69
2022/10/21 01:01:13;;;;;;;4.30;3.75;;;19.90;67.90;;;;;;5085581;28;45260;-68
2022/10/21 01:03:40;;;;;;;4.25;3.80;;;19.90;67.80;;;;;;5088627;27;45200;-68
2022/10/21 01:06:08;;;;;;;5.75;4.07;;;19.90;67.80;;;;;;5089156;28;45392;-69
2022/10/21 01:08:35;;;;;;;5.80;3.90;;;19.90;67.90;;;;;;5088714;28;46508;-67
2022/10/21 01:11:03;;;;;;;4.72;3.40;;;19.90;67.90;;;;;;5088891;28;45197;-68
2022/10/21 01:13:36;;;;;;;6.38;4.07;;;19.80;67.80;;;;;;5088881;28;45244;-68
2022/10/21 01:16:05;;;;;;;3.85;3.55;;;19.90;67.90;;;;;;5089060;28;45280;-67
2022/10/21 01:18:35;;;;;;;4.82;3.72;;;19.80;67.80;;;;;;5088575;28;45277;-69
2022/10/21 01:21:16;;;;;;;5.45;3.60;;;19.80;68.50;;;;;;5088698;28;45201;-67
2022/10/21 01:24:18;;;;;;;5.07;3.40;;;19.80;67.80;;;;;;5088807;28;45288;-68
2022/10/21 01:27:13;;;;;;;5.22;3.70;;;19.80;67.70;;;;;;5088920;28;45205;-68
2022/10/21 01:29:54;;;;;;;4.35;3.90;;;19.80;67.80;;;;;;5088402;28;46420;-68
2022/10/21 01:32:24;;;;;;;5.55;3.88;;;19.80;68.50;;;;;;5088791;28;45186;-68
2022/10/21 01:34:54;;;;;;;5.07;4.05;;;19.80;67.70;;;;;;5088529;28;45391;-69
2022/10/21 01:37:22;;;;;;;4.20;3.80;;;19.80;68.50;;;;;;5088601;28;45288;-69
2022/10/21 01:39:51;;;;;;;3.92;3.53;;;19.80;67.80;;;;;;5088632;28;45368;-68
2022/10/21 01:42:20;;;;;;;7.35;3.60;;;19.80;67.80;;;;;;5088251;28;45336;-68
2022/10/21 01:44:49;;;;;;;5.53;3.95;;;19.80;67.70;;;;;;5088220;28;45294;-68
2022/10/21 01:47:17;;;;;;;5.53;3.60;;;19.80;67.80;;;;;;5088613;28;45292;-68
2022/10/21 01:49:48;;;;;;;5.30;3.42;;;19.80;67.70;;;;;;5088113;28;46386;-68
2022/10/21 01:52:15;;;;;;;4.80;3.65;;;19.80;67.80;;;;;;5088331;28;45250;-68
2022/10/21 01:54:44;;;;;;;5.20;3.65;;;19.80;67.80;;;;;;5088345;28;45296;-69
2022/10/21 01:57:12;;;;;;;4.20;3.80;;;19.80;67.80;;;;;;5088304;28;45226;-69
2022/10/21 01:59:39;;;;;;;4.28;3.40;;;19.80;67.80;;;;;;5087979;28;45245;-68
2022/10/21 02:02:06;;;;;;;5.30;3.72;;;19.80;67.70;;;;;;5088080;28;45262;-68
2022/10/21 02:04:34;;;;;;;4.38;3.60;;;19.80;67.70;;;;;;5088151;28;45341;-69
2022/10/21 02:07:02;;;;;;;4.22;3.75;;;19.80;67.80;;;;;;5088486;28;45343;-68
2022/10/21 02:09:29;;;;;;;5.05;3.88;;;19.80;67.70;;;;;;5087827;28;45480;-67
2022/10/21 02:11:58;;;;;;;5.50;3.78;;;19.80;67.70;;;;;;5088069;28;45281;-69
2022/10/21 02:14:25;;;;;;;5.40;3.67;;;19.80;67.80;;;;;;5087424;27;45272;-69
2022/10/21 02:16:52;;;;;;;4.85;3.90;;;19.80;67.70;;;;;;5088184;28;45263;-68
2022/10/21 02:19:19;;;;;;;4.10;3.47;;;19.80;67.70;;;;;;5087669;28;46393;-68
2022/10/21 02:21:47;;;;;;;6.72;4.28;;;19.80;67.70;;;;;;5087669;28;45324;-68
2022/10/21 02:24:19;;;;;;;6.10;3.38;;;19.80;67.90;;;;;;5087708;28;45395;-68
2022/10/21 02:26:45;;;;;;;3.75;3.42;;;19.80;67.80;;;;;;5087989;28;45225;-68
2022/10/21 02:29:12;;;;;;;3.90;3.50;;;19.80;67.70;;;;;;5087500;28;45309;-67
2022/10/21 02:31:54;;;;;;;4.63;3.22;;;19.80;67.70;;;;;;5087486;28;45337;-68
2022/10/21 02:34:29;;;;;;;5.07;3.30;;;19.70;67.70;;;;;;5087763;28;45197;-67
2022/10/21 02:36:58;;;;;;;4.95;3.03;;;19.70;67.60;;;;;;5087635;28;45174;-68
2022/10/21 02:39:29;;;;;;;4.07;3.38;;;19.70;67.60;;;;;;5087267;28;46677;-68
2022/10/21 02:41:56;;;;;;;4.95;3.15;;;19.70;67.60;;;;;;5087621;28;45182;-67
2022/10/21 02:44:23;;;;;;;3.60;3.08;;;19.70;67.60;;;;;;5087327;28;45311;-67
2022/10/21 02:46:50;;;;;;;4.15;3.20;;;19.70;67.60;;;;;;5087604;28;45226;-68
2022/10/21 02:49:17;;;;;;;5.60;3.33;;;19.70;67.60;;;;;;5087129;28;46023;-67
2022/10/21 02:51:43;;;;;;;3.88;3.33;;;19.70;67.60;;;;;;5087304;28;45261;-68
2022/10/21 02:54:10;;;;;;;3.65;2.90;;;19.70;67.60;;;;;;5087480;28;45206;-68
2022/10/21 02:56:38;;;;;;;4.88;3.30;;;19.70;67.50;;;;;;5087443;28;45457;-68
2022/10/21 02:59:05;;;;;;;4.55;3.50;;;19.70;67.50;;;;;;5087021;28;46684;-68
2022/10/21 03:01:32;;;;;;;5.22;3.50;;;19.70;68.20;;;;;;5087135;28;45240;-68
2022/10/21 03:03:59;;;;;;;5.57;3.45;;;19.70;67.50;;;;;;5087259;28;45379;-68
2022/10/21 03:06:26;;;;;;;3.97;2.95;;;19.70;67.50;;;;;;5087308;28;45232;-68
2022/10/21 03:08:52;;;;;;;4.10;3.22;;;19.70;67.50;;;;;;5086888;28;45322;-68
2022/10/21 03:11:19;;;;;;;3.78;3.05;;;19.70;67.50;;;;;;5087030;28;45311;-68
2022/10/21 03:13:47;;;;;;;5.38;2.97;;;19.70;67.50;;;;;;5087026;28;45301;-68
2022/10/21 03:16:14;;;;;;;4.95;3.38;;;19.70;67.40;;;;;;5087265;28;45244;-68
2022/10/21 03:18:41;;;;;;;3.88;3.17;;;19.70;67.50;;;;;;5086714;28;45478;-68
2022/10/21 03:21:08;;;;;;;3.50;3.20;;;19.70;67.50;;;;;;5086687;28;45260;-67
2022/10/21 03:23:35;;;;;;;3.50;3.20;;;19.70;67.40;;;;;;5086797;28;45301;-68
2022/10/21 03:26:02;;;;;;;5.20;3.20;;;19.70;68.20;;;;;;5085767;28;45272;-68
2022/10/21 03:28:29;;;;;;;4.78;3.17;;;19.70;67.40;;;;;;5086597;28;46320;-68
2022/10/21 03:30:57;;;;;;;4.15;3.13;;;19.70;67.30;;;;;;5086531;28;45199;-68
2022/10/21 03:33:24;;;;;;;3.90;3.10;;;19.70;67.30;;;;;;5086764;28;45313;-67
2022/10/21 03:35:51;;;;;;;4.00;3.10;;;19.70;67.40;;;;;;5086818;28;45438;-69
2022/10/21 03:38:17;;;;;;;4.65;3.38;;;19.70;67.40;;;;;;5086457;28;45312;-68
2022/10/21 03:40:44;;;;;;;3.50;3.20;;;19.70;67.40;;;;;;5086471;28;45202;-68
2022/10/21 03:43:11;;;;;;;3.13;2.75;;;19.70;67.40;;;;;;5086290;28;45230;-68
2022/10/21 03:45:38;;;;;;;3.47;2.97;;;19.70;67.40;;;;;;5086821;28;45429;-68
2022/10/21 03:48:06;;;;;;;3.67;3.03;;;19.70;67.40;;;;;;5086177;28;46413;-67
2022/10/21 03:50:33;;;;;;;3.45;2.70;;;19.70;67.50;;;;;;5086542;28;45178;-68
2022/10/21 03:53:00;;;;;;;4.97;3.05;;;19.70;67.40;;;;;;5086340;28;45240;-68
2022/10/21 03:55:27;;;;;;;3.28;2.90;;;19.70;67.40;;;;;;5086645;28;45219;-67
2022/10/21 03:57:54;;;;;;;3.22;2.92;;;19.70;67.40;;;;;;5086101;28;46403;-67
2022/10/21 04:00:21;;;;;;;4.80;3.10;;;19.70;67.40;;;;;;5086245;28;45312;-69
2022/10/21 04:02:47;;;;;;;3.65;3.00;;;19.60;67.40;;;;;;5086241;28;45311;-67
2022/10/21 04:05:16;;;;;;;3.90;2.80;;;19.70;67.40;;;;;;5086652;28;45407;-68
2022/10/21 04:07:43;;;;;;;3.08;2.78;;;19.70;67.40;;;;;;5086105;28;45543;-67
2022/10/21 04:10:10;;;;;;;2.85;2.63;;;19.60;67.30;;;;;;5085931;28;45357;-68
2022/10/21 04:12:37;;;;;;;3.30;3.00;;;19.60;68.10;;;;;;5086216;28;45296;-67
2022/10/21 04:15:04;;;;;;;4.53;3.28;;;19.60;67.40;;;;;;5086246;28;45280;-68
2022/10/21 04:17:31;;;;;;;4.38;3.20;;;19.60;67.30;;;;;;5085845;28;45433;-67
2022/10/21 04:19:58;;;;;;;3.80;3.00;;;19.60;67.20;;;;;;5085827;28;45258;-67
2022/10/21 04:22:26;;;;;;;3.20;2.60;;;19.70;67.30;;;;;;5085989;28;45343;-70
2022/10/21 04:24:53;;;;;;;3.70;2.72;;;19.60;67.20;;;;;;5086074;27;45344;-68
2022/10/21 04:27:20;;;;;;;4.40;2.97;;;19.60;67.30;;;;;;5085807;28;46738;-68
2022/10/21 04:29:47;;;;;;;2.85;2.60;;;19.60;67.40;;;;;;5085685;28;45278;-68
2022/10/21 04:32:14;;;;;;;2.92;2.55;;;19.60;67.30;;;;;;5085860;28;45210;-68
2022/10/21 04:34:41;;;;;;;4.38;2.95;;;19.60;67.30;;;;;;5085891;28;45404;-67
2022/10/21 04:37:08;;;;;;;4.57;2.83;;;19.60;67.20;;;;;;5085078;27;45692;-67
2022/10/21 04:39:36;;;;;;;6.72;2.97;;;19.60;67.30;;;;;;5085734;28;45277;-67
2022/10/21 04:42:03;;;;;;;3.67;2.88;;;19.60;67.30;;;;;;5085636;28;45320;-67
2022/10/21 04:44:30;;;;;;;4.07;2.75;;;19.60;67.30;;;;;;5085502;28;45314;-68
2022/10/21 04:46:57;;;;;;;3.42;2.97;;;19.60;67.20;;;;;;5085403;28;45471;-67
2022/10/21 04:49:24;;;;;;;2.97;2.65;;;19.60;67.30;;;;;;5085409;28;45292;-68
2022/10/21 04:51:51;;;;;;;3.53;2.88;;;19.60;67.20;;;;;;5085584;28;45244;-68
2022/10/21 04:54:18;;;;;;;3.53;2.80;;;19.60;67.20;;;;;;5085614;28;45260;-68
2022/10/21 04:56:46;;;;;;;3.33;2.65;;;19.60;67.20;;;;;;5085235;28;46650;-68
2022/10/21 04:59:13;;;;;;;3.20;2.70;;;19.60;67.30;;;;;;5085182;28;45301;-68
2022/10/21 05:01:40;;;;;;;4.00;2.80;;;19.60;67.20;;;;;;5085468;28;45224;-67
2022/10/21 05:04:06;;;;;;;3.03;2.70;;;19.60;67.20;;;;;;5085686;28;45367;-67
2022/10/21 05:06:33;;;;;;;5.07;2.83;;;19.60;67.10;;;;;;5085161;28;45214;-68
2022/10/21 05:09:00;;;;;;;3.03;2.83;;;19.60;67.10;;;;;;5085252;28;45372;-67
2022/10/21 05:11:29;;;;;;;4.72;2.67;;;19.60;67.20;;;;;;5085449;28;45484;-68
2022/10/21 05:13:57;;;;;;;3.15;2.30;;;19.60;67.20;;;;;;5085491;28;45218;-68
2022/10/21 05:16:24;;;;;;;4.45;2.60;;;19.60;67.20;;;;;;5085030;28;46679;-68
2022/10/21 05:18:51;;;;;;;3.03;2.28;;;19.60;67.20;;;;;;5085033;28;45315;-68
2022/10/21 05:21:18;;;;;;;2.75;2.47;;;19.60;67.20;;;;;;5085181;28;45425;-67
2022/10/21 05:23:44;;;;;;;3.78;2.92;;;19.60;67.20;;;;;;5085323;28;45284;-68
2022/10/21 05:26:11;;;;;;;4.07;2.97;;;19.60;67.30;;;;;;5084795;28;45235;-68
2022/10/21 05:28:38;;;;;;;3.95;2.80;;;19.50;67.30;;;;;;5084982;28;45233;-68
2022/10/21 05:31:06;;;;;;;3.03;2.80;;;19.50;67.20;;;;;;5085092;28;45542;-67
2022/10/21 05:33:33;;;;;;;3.47;2.65;;;19.60;67.20;;;;;;5085090;28;45309;-68
2022/10/21 05:36:01;;;;;;;3.83;2.78;;;19.50;67.20;;;;;;5084665;28;46333;-68
2022/10/21 05:38:28;;;;;;;3.08;2.30;;;19.50;67.30;;;;;;5084760;28;45182;-68
2022/10/21 05:40:55;;;;;;;4.28;2.45;;;19.50;67.30;;;;;;5084794;28;45423;-67
2022/10/21 05:43:22;;;;;;;3.08;2.50;;;19.50;67.30;;;;;;5084662;28;45400;-68
2022/10/21 05:45:49;;;;;;;2.92;2.53;;;19.50;67.20;;;;;;5084705;28;45293;-68
2022/10/21 05:48:17;;;;;;;3.40;2.60;;;19.60;67.20;;;;;;5084792;27;45200;-67
2022/10/21 05:50:44;;;;;;;3.92;2.72;;;19.60;67.10;;;;;;5088139;28;45205;-68
2022/10/21 05:53:11;;;;;;;2.85;2.30;;;19.60;67.10;;;;;;5088454;28;45251;-68
2022/10/21 05:55:38;;;;;;;3.85;3.00;;;19.60;67.20;;;;;;5088201;28;45306;-68
2022/10/21 05:58:05;;;;;;;2.97;2.40;;;19.60;67.30;;;;;;5088034;28;45372;-68
2022/10/21 06:00:31;;;;;;;3.70;2.58;;;19.50;67.10;;;;;;5088450;28;45239;-67
2022/10/21 06:02:58;;;;;;;2.92;2.17;;;19.50;67.20;;;;;;5088373;28;45453;-67
2022/10/21 06:05:27;;;;;;;2.85;2.50;;;19.50;67.30;;;;;;5088004;28;46569;-67
2022/10/21 06:07:54;;;;;;;3.33;2.50;;;19.50;67.30;;;;;;5088217;28;45301;-68
2022/10/21 06:10:21;;;;;;;2.75;2.30;;;19.50;67.40;;;;;;5088222;28;45210;-69
2022/10/21 06:12:48;;;;;;;2.33;2.13;;;19.50;67.30;;;;;;5088236;28;45598;-68
2022/10/21 06:15:15;;;;;;;3.40;2.17;;;19.50;67.20;;;;;;5087548;28;45292;-67
2022/10/21 06:17:42;;;;;;;2.47;2.22;;;19.50;67.20;;;;;;5087887;28;45351;-68
2022/10/21 06:20:09;;;;;;;2.20;2.00;;;19.50;67.80;;;;;;5087895;28;45241;-67
2022/10/21 06:22:37;;;;;;;2.92;2.20;;;19.50;67.10;;;;;;5087977;28;45408;-69
2022/10/21 06:25:05;;;;;;;3.22;2.22;;;19.50;67.20;;;;;;5087359;28;46713;-68
2022/10/21 06:27:32;;;;;;;4.57;2.58;;;19.50;67.20;;;;;;5087593;28;45312;-68
2022/10/21 06:29:59;;;;;;;3.42;2.42;;;19.50;67.20;;;;;;5087808;28;45316;-68
2022/10/21 06:32:25;;;;;;;2.22;1.95;;;19.50;67.30;;;;;;5087835;28;45404;-67
2022/10/21 06:34:53;;;;;;;2.70;2.20;;;19.50;67.30;;;;;;5087424;28;46423;-67
2022/10/21 06:37:20;;;;;;;4.28;2.25;;;19.50;67.30;;;;;;5087513;28;45191;-68
2022/10/21 06:39:48;;;;;;;3.28;2.17;;;19.50;67.40;;;;;;5087686;28;45304;-68
2022/10/21 06:42:15;;;;;;;4.00;2.63;;;19.50;67.30;;;;;;5087739;28;45342;-68
2022/10/21 06:44:42;;;;;;;3.35;2.13;;;19.50;67.20;;;;;;5086824;28;45281;-68
2022/10/21 06:47:08;;;;;;;3.90;2.42;;;19.50;67.20;;;;;;5087277;28;45277;-67
2022/10/21 06:49:35;;;;;;;2.70;2.08;;;19.50;67.20;;;;;;5087644;28;45245;-66
2022/10/21 06:52:02;;;;;;;3.13;2.10;;;19.50;67.80;;;;;;5087595;28;45347;-67
2022/10/21 06:54:29;;;;;;;4.35;2.50;;;19.50;67.00;;;;;;5087116;28;46613;-67
2022/10/21 06:56:57;;;;;;;2.85;2.40;;;19.50;67.00;;;;;;5086916;28;45301;-68
2022/10/21 06:59:24;;;;;;;3.83;2.38;;;19.50;67.10;;;;;;5076228;27;45271;-68
2022/10/21 07:01:51;;;;;;;2.22;1.90;;;19.50;67.20;;;;;;5067024;28;45252;-68
2022/10/21 07:04:18;;;;;;;3.45;2.03;;;19.50;67.20;;;;;;5066632;28;47624;-67
2022/10/21 07:06:45;;;;;;;4.63;2.40;;;19.60;67.20;;;;;;5066743;28;45246;-67
2022/10/21 07:09:12;;;;;;;3.53;2.33;;;19.60;67.30;;;;;;5066837;28;45219;-67
2022/10/21 07:11:39;;;;;;;2.78;2.10;;;19.60;67.30;;;;;;5066853;28;45396;-68
2022/10/21 07:14:07;;;;;;;5.85;2.20;;;19.60;67.30;;;;;;5066658;28;46733;-68
2022/10/21 07:16:35;;;;;;;3.30;2.30;;;19.60;67.30;;;;;;5066462;28;45337;-68
2022/10/21 07:19:02;;;;;;;3.65;2.60;;;19.60;67.20;;;;;;5066490;28;45258;-68
2022/10/21 07:21:30;;;;;;;2.70;2.30;;;19.60;67.30;;;;;;5066572;28;45299;-67
2022/10/21 07:23:57;;;;;;;4.80;2.97;;;19.60;67.90;;;;;;5066063;28;46406;-68
2022/10/21 07:26:24;;;;;;;8.63;2.42;;;19.60;68.00;;;;;;5066407;28;45412;-66
2022/10/21 07:28:51;;;;;;;4.07;2.08;;;19.60;69.30;;;;;;5066544;28;45294;-67
2022/10/21 07:31:20;;;;;;;4.32;2.67;;;19.60;69.30;;;;;;5066688;28;45259;-69
2022/10/21 07:33:47;;;;;;;4.22;2.50;;;19.60;68.60;;;;;;5066181;28;45295;-67
2022/10/21 07:36:14;;;;;;;3.95;2.50;;;19.60;68.80;;;;;;5072671;28;45414;-67
2022/10/21 07:38:45;;;;;;;5.28;2.20;;;19.60;69.10;;;;;;5086584;28;45324;-69
2022/10/21 07:41:14;;;;;;;4.13;2.00;;;19.60;69.30;;;;;;5086828;28;45344;-68
2022/10/21 07:43:41;;;;;;;4.82;2.38;;;19.60;69.20;;;;;;5086115;28;45245;-67
2022/10/21 07:46:08;;;;;;;3.17;2.25;;;19.60;69.70;;;;;;5086357;28;45284;-67
2022/10/21 07:48:36;;;;;;;3.83;2.00;;;19.60;68.90;;;;;;5086689;28;45244;-66
2022/10/21 07:51:03;;;;;;;4.55;2.10;;;19.60;68.90;;;;;;5086664;28;45268;-68
2022/10/21 07:53:30;;;;;;;5.53;2.75;;;19.60;68.70;;;;;;5086113;28;46643;-68
2022/10/21 07:56:04;;;;;;;3.80;2.58;;;19.60;68.60;;;;;;5086296;28;45367;-67
2022/10/21 07:58:31;;;;;;;3.15;2.22;;;19.60;68.50;;;;;;5086528;28;45282;-68
2022/10/21 08:00:59;;;;;;;3.47;2.22;;;19.60;69.10;;;;;;5086571;28;45249;-66
2022/10/21 08:03:26;;;;;;;4.63;2.47;;;19.60;68.40;;;;;;5086154;28;46436;-68
2022/10/21 08:05:54;;;;;;;2.90;2.38;;;19.60;68.40;;;;;;5086292;28;45268;-68
2022/10/21 08:08:21;;;;;;;4.88;2.47;;;19.60;68.20;;;;;;5086109;28;45328;-68
2022/10/21 08:10:48;;;;;;;3.60;2.30;;;19.60;68.20;;;;;;5086591;28;45262;-67
2022/10/21 08:13:15;;;;;;;5.85;2.85;;;19.60;68.10;;;;;;5085231;28;46720;-67
2022/10/21 08:15:42;;;;;;;3.97;2.50;;;19.60;68.00;;;;;;5086050;28;45406;-67
2022/10/21 08:18:09;;;;;;;6.15;2.78;;;19.60;68.20;;;;;;5086218;28;45335;-67
2022/10/21 08:20:42;;;;;;;3.50;2.45;;;19.60;68.20;;;;;;5086211;28;45459;-69
2022/10/21 08:23:10;;;;;;;4.47;2.90;;;19.60;68.20;;;;;;5085789;28;45468;-68
2022/10/21 08:25:37;;;;;;;5.40;3.10;;;19.60;68.00;;;;;;5085797;28;45224;-68
2022/10/21 08:28:04;;;;;;;5.22;2.35;;;19.60;68.10;;;;;;5086036;28;45196;-67
2022/10/21 08:30:31;;;;;;;3.72;2.92;;;19.60;68.50;;;;;;5085993;28;45196;-68
2022/10/21 08:32:58;;;;;;;4.22;2.60;;;19.60;68.40;;;;;;5085580;28;46674;-67
2022/10/21 08:35:25;;;;;;;4.25;2.78;;;19.60;68.30;;;;;;5085652;28;45303;-68
2022/10/21 08:37:52;;;;;;;3.60;2.65;;;19.60;68.40;;;;;;5085533;28;45463;-68
2022/10/21 08:40:20;;;;;;;5.20;3.10;;;19.60;68.40;;;;;;5085975;28;45380;-68
2022/10/21 08:42:47;;;;;;;5.03;2.70;;;19.60;69.10;;;;;;5085370;28;46392;-68
2022/10/21 08:45:19;;;;;;;4.43;2.53;;;19.60;68.40;;;;;;5085644;28;45300;-69
2022/10/21 08:47:46;;;;;;;3.60;2.70;;;19.60;68.40;;;;;;5085915;28;45257;-68
2022/10/21 08:50:14;;;;;;;3.22;2.78;;;19.60;68.50;;;;;;5085706;28;45291;-68
2022/10/21 08:52:42;;;;;;;5.55;3.00;;;19.60;68.40;;;;;;5085335;28;45272;-68
2022/10/21 08:55:14;;;;;;;3.80;3.00;;;19.70;68.50;;;;;;5085374;28;45205;-68
2022/10/21 08:57:43;;;;;;;5.93;3.08;;;19.70;68.50;;;;;;5083583;28;45323;-68
2022/10/21 09:00:15;;;;;;;4.65;2.88;;;19.70;69.10;;;;;;5084983;28;45301;-67
2022/10/21 09:03:10;;;;;;;7.65;3.00;;;19.70;68.40;;;;;;5088716;27;45355;-67
2022/10/21 09:06:07;;;;;;;4.93;3.00;;;19.70;68.30;;;;;;5105364;27;45331;-67
2022/10/21 09:08:36;;;;;;;5.85;3.15;;;19.70;68.30;;;;;;5105538;27;45268;-68
2022/10/21 09:11:05;;;;;;;6.05;2.75;;;19.70;68.40;;;;;;5105587;27;45395;-68
2022/10/21 09:13:41;;;;;;;8.45;3.17;;;19.70;68.30;;;;;;5105351;27;46801;-67
2022/10/21 09:16:09;;;;;;;4.85;3.45;;;19.70;68.40;;;;;;5105291;27;45298;-67
2022/10/21 09:18:44;;;;;;;3.80;3.05;;;19.70;68.40;;;;;;5105684;27;45320;-67
2022/10/21 09:21:15;;;;;;;5.30;3.05;;;19.70;68.50;;;;;;5105436;27;45224;-67
2022/10/21 09:23:47;;;;;;;4.05;2.65;;;19.70;68.40;;;;;;5105089;27;45288;-68
2022/10/21 09:26:21;;;;;;;6.38;3.17;;;19.70;68.40;;;;;;5108547;27;45312;-68
2022/10/21 09:28:50;;;;;;;5.50;3.20;;;19.70;68.40;;;;;;5108746;27;45406;-67
2022/10/21 09:31:18;;;;;;;7.18;3.17;;;19.70;68.30;;;;;;5109160;27;45570;-70
2022/10/21 09:33:46;;;;;;;7.85;3.25;;;19.70;68.20;;;;;;5108423;27;46366;-69
2022/10/21 09:36:13;;;;;;;7.68;3.33;;;19.70;68.30;;;;;;5102046;27;45547;-67
2022/10/21 09:38:42;;;;;;;4.63;2.83;;;19.70;68.20;;;;;;5088089;28;45522;-68
2022/10/21 09:41:10;;;;;;;6.88;3.35;;;19.70;68.10;;;;;;5088230;28;45410;-67
2022/10/21 09:43:37;;;;;;;6.20;3.45;;;19.70;68.10;;;;;;5087449;28;46667;-69
2022/10/21 09:46:05;;;;;;;6.50;3.03;;;19.70;68.10;;;;;;5087794;28;45420;-67
2022/10/21 09:48:37;;;;;;;7.22;2.80;;;19.70;68.00;;;;;;5087933;28;45308;-69
2022/10/21 09:51:06;;;;;;;7.88;2.80;;;19.70;68.00;;;;;;5088216;28;45647;-66
2022/10/21 09:53:34;;;;;;;5.80;2.97;;;19.70;68.00;;;;;;5087885;28;45376;-68
2022/10/21 09:56:02;;;;;;;9.50;3.17;;;19.70;68.10;;;;;;5087853;28;45273;-68
2022/10/21 09:58:30;;;;;;;2.80;2.50;;;19.70;68.10;;;;;;5088313;28;45234;-68
2022/10/21 10:00:57;;;;;;;4.55;2.47;;;19.70;68.70;;;;;;5088654;28;45579;-68
2022/10/21 10:03:32;;;;;;;3.58;2.55;;;19.70;68.40;;;;;;5088030;28;46404;-69
2022/10/21 10:05:59;;;;;;;5.32;2.50;;;19.70;68.90;;;;;;5087683;28;45288;-68
2022/10/21 10:08:35;;;;;;;4.57;1.67;;;19.70;69.20;;;;;;5088052;28;45195;-68
2022/10/21 10:11:03;;;;;;;4.97;1.60;;;19.60;69.10;;;;;;5088348;28;45324;-68
2022/10/21 10:13:30;;;;;;;5.35;2.08;;;19.60;69.60;;;;;;5088036;28;45292;-68
2022/10/21 10:16:12;;;;;;;11.98;2.20;;;19.60;69.70;;;;;;5088046;28;45351;-70
2022/10/21 10:18:40;;;;;;;1.83;1.20;;;19.60;70.00;;;;;;5088253;28;45310;-69
2022/10/21 10:21:10;;;;;;;4.35;1.67;;;19.60;70.20;;;;;;5087867;28;45341;-68
2022/10/21 10:23:43;;;;;;;3.42;2.05;;;19.60;70.00;;;;;;5087803;28;45329;-69
2022/10/21 10:26:10;;;;;;;5.28;1.60;;;19.60;69.90;;;;;;5099375;27;45326;-69
2022/10/21 10:28:37;;;;;;;4.03;1.73;;;19.60;70.40;;;;;;5108330;27;45338;-69
2022/10/21 10:31:03;;;;;;;2.42;1.70;;;19.60;70.00;;;;;;5108491;27;45119;-68
2022/10/21 10:33:31;;;;;;;4.72;1.73;;;19.60;71.30;;;;;;5107838;27;46561;-69
2022/10/21 10:36:00;;;;;;;3.40;1.65;;;19.60;70.30;;;;;;5102764;27;45230;-69
2022/10/21 10:38:28;;;;;;;11.40;1.50;;;19.60;70.30;;;;;;5087511;28;45415;-70
2022/10/21 10:40:55;;;;;;;4.13;1.67;;;19.60;71.20;;;;;;5087519;28;45385;-72
2022/10/21 10:43:24;;;;;;;5.95;1.52;;;19.60;71.80;;;;;;5084600;28;46406;-69
2022/10/21 10:45:53;;;;;;;5.97;1.58;;;19.60;72.60;;;;;;5084927;28;45387;-70
2022/10/21 10:48:22;;;;;;;2.80;1.27;;;19.70;72.70;;;;;;5087019;28;45273;-69
2022/10/21 10:50:49;;;;;;;9.15;2.03;;;19.80;72.60;;;;;;5087150;28;45322;-68
2022/10/21 10:53:23;;;;;;;12.23;1.83;;;19.80;72.20;;;;;;5085666;28;45222;-71
2022/10/21 10:55:53;;;;;;;3.88;1.73;;;19.90;72.50;;;;;;5086981;28;45261;-69
2022/10/21 10:58:19;;;;;;;1.80;1.10;;;19.90;72.20;;;;;;5087158;28;45337;-68
2022/10/21 11:00:46;;;;;;;2.58;1.58;;;19.90;72.30;;;;;;5087507;28;45559;-70
2022/10/21 11:03:15;;;;;;;5.30;1.52;;;19.90;72.20;;;;;;5085294;28;46391;-67
2022/10/21 11:05:44;;;;;;;4.60;2.45;;;20.00;72.80;;;;;;5086937;28;45259;-68
2022/10/21 11:08:14;;;;;;;5.68;1.80;;;20.00;72.40;;;;;;5087105;28;45254;-67
2022/10/21 11:10:44;;;;;;;5.65;3.38;;;20.00;72.10;;;;;;5085209;28;45232;-68
2022/10/21 11:13:13;;;;;;;4.53;2.10;;;20.00;71.20;;;;;;5076087;28;46474;-68
2022/10/21 11:15:50;;;;;;;2.92;2.25;;;20.10;71.20;;;;;;5082878;28;45443;-70
2022/10/21 11:18:19;;;;;;;7.03;2.50;;;20.20;71.10;;;;;;5086160;28;45318;-68
2022/10/21 11:20:49;;;;;;;3.22;1.75;;;20.30;71.10;;;;;;5083037;28;45411;-68
2022/10/21 11:23:25;;;;;;;5.43;1.27;;;20.30;70.50;;;;;;5084891;28;46409;-68
2022/10/21 11:25:55;;;;;;;6.22;1.55;;;20.40;70.50;;;;;;5084435;28;45408;-68
2022/10/21 11:28:25;;;;;;;3.65;1.55;;;20.40;70.30;;;;;;5086038;28;45332;-67
2022/10/21 11:31:00;;;;;;;3.30;1.95;;;20.30;70.00;;;;;;5087160;28;45257;-68
2022/10/21 11:33:32;;;;;;;3.33;2.00;;;20.40;69.80;;;;;;5083126;28;46417;-70
2022/10/21 11:36:03;;;;;;;2.63;1.98;;;20.40;69.90;;;;;;5080852;28;45348;-70
2022/10/21 11:38:41;;;;;;;1.83;1.60;;;20.40;69.90;;;;;;5082924;28;45537;-69
2022/10/21 11:41:19;;;;;;;2.83;1.65;;;20.50;69.80;;;;;;5086868;28;45379;-69
2022/10/21 11:43:49;;;;;;;7.05;1.90;;;20.50;69.70;;;;;;5085563;28;45177;-68
2022/10/21 11:46:18;;;;;;;2.05;1.77;;;20.60;69.20;;;;;;5083683;27;45265;-68
2022/10/21 11:49:03;;;;;;;4.22;1.85;;;20.60;69.10;;;;;;5085172;28;45316;-68
2022/10/21 11:51:40;;;;;;;3.85;1.85;;;20.60;68.80;;;;;;5085556;28;45664;-68
2022/10/21 11:54:41;;;;;;;4.30;2.00;;;20.60;69.00;;;;;;5085314;28;45301;-67
2022/10/21 11:57:10;;;;;;;1.52;1.30;;;20.60;69.40;;;;;;5071167;28;45542;-70
2022/10/21 11:59:45;;;;;;;3.13;1.73;;;20.60;69.40;;;;;;5085381;28;45240;-70
2022/10/21 12:02:15;;;;;;;3.42;1.20;;;20.60;69.60;;;;;;5083700;28;45469;-70
2022/10/21 12:04:46;;;;;;;1.92;0.95;;;20.60;69.80;;;;;;5081878;28;46602;-69
2022/10/21 12:07:34;;;;;;;4.47;1.10;;;20.60;70.00;;;;;;5085029;28;45467;-71
2022/10/21 12:10:04;;;;;;;11.90;1.92;;;20.50;70.30;;;;;;5084610;28;45370;-69
2022/10/21 12:12:34;;;;;;;6.80;1.77;;;20.50;72.00;;;;;;5083434;28;45550;-70
2022/10/21 12:15:01;;;;;;;3.28;1.17;;;20.50;71.40;;;;;;5084779;28;46841;-68
2022/10/21 12:17:28;;;;;;;3.53;1.90;;;20.50;71.20;;;;;;5086176;28;45364;-69
2022/10/21 12:19:57;;;;;;;1.88;1.40;;;20.60;71.40;;;;;;5085380;28;45232;-69
2022/10/21 12:22:25;;;;;;;7.60;1.27;;;20.60;69.70;;;;;;5085333;28;45402;-68
2022/10/21 12:24:55;;;;;;;10.13;1.60;;;20.70;70.10;;;;;;5084744;28;45284;-68
2022/10/21 12:27:25;;;;;;;12.70;1.70;;;20.70;70.30;;;;;;5085824;28;45266;-68
2022/10/21 12:30:01;;;;;;;2.17;1.38;;;20.70;69.30;;;;;;5086007;28;45162;-68
2022/10/21 12:32:31;;;;;;;9.35;1.63;;;20.80;69.50;;;;;;5086393;28;45408;-70
2022/10/21 12:34:57;;;;;;;2.17;1.00;;;20.80;70.10;;;;;;5084701;28;46733;-70
2022/10/21 12:37:43;;;;;;;8.32;1.50;;;20.80;68.90;;;;;;5069567;28;45200;-69
2022/10/21 12:40:11;;;;;;;3.13;1.15;;;20.90;68.90;;;;;;5065629;28;45224;-70
2022/10/21 12:42:38;;;;;;;5.70;0.88;;;20.80;68.80;;;;;;5066073;28;45316;-69
2022/10/21 12:45:21;;;;;;;5.95;1.65;;;20.80;69.00;;;;;;5073858;27;46374;-69
2022/10/21 12:47:48;;;;;;;13.88;1.25;;;20.80;69.40;;;;;;5084792;28;45542;-68
2022/10/21 12:50:22;;;;;;;3.20;1.20;;;20.80;69.40;;;;;;5085852;28;45349;-67
2022/10/21 12:53:03;;;;;;;1.63;0.93;;;20.90;68.60;;;;;;5086110;28;45288;-67
2022/10/21 12:55:38;;;;;;;3.35;0.80;;;20.90;69.00;;;;;;5084478;28;45525;-69